sensor_id;sensor_type;location;lat;lon;timestamp;P1;durP1;ratioP1;P2;durP2;ratioP2
37527;SDS011;23372;52.050;4.810;2022-08-21T00:01:55;9.10;;;5.22;;
37527;SDS011;23372;52.050;4.810;2022-08-21T00:04:21;12.10;;;5.93;;
37527;SDS011;23372;52.050;4.810;2022-08-21T00:06:47;13.40;;;5.90;;
37527;SDS011;23372;52.050;4.810;2022-08-21T00:09:13;10.35;;;6.00;;
37527;SDS011;23372;52.050;4.810;2022-08-21T00:11:39;14.75;;;6.15;;
37527;SDS011;23372;52.050;4.810;2022-08-21T00:14:05;11.73;;;5.68;;
37527;SDS011;23372;52.050;4.810;2022-08-21T00:16:32;13.93;;;6.63;;
37527;SDS011;23372;52.050;4.810;2022-08-21T00:18:58;11.32;;;5.75;;
37527;SDS011;23372;52.050;4.810;2022-08-21T00:21:23;10.90;;;6.25;;
37527;SDS011;23372;52.050;4.810;2022-08-21T00:23:50;10.80;;;5.60;;
37527;SDS011;23372;52.050;4.810;2022-08-21T00:26:16;12.80;;;6.18;;
37527;SDS011;23372;52.050;4.810;2022-08-21T00:28:41;12.18;;;5.72;;
37527;SDS011;23372;52.050;4.810;2022-08-21T00:31:07;9.65;;;5.68;;
37527;SDS011;23372;52.050;4.810;2022-08-21T00:33:32;9.45;;;5.03;;
37527;SDS011;23372;52.050;4.810;2022-08-21T00:35:58;10.95;;;5.82;;
37527;SDS011;23372;52.050;4.810;2022-08-21T00:38:24;10.15;;;6.25;;
37527;SDS011;23372;52.050;4.810;2022-08-21T00:40:52;12.82;;;6.88;;
37527;SDS011;23372;52.050;4.810;2022-08-21T00:43:21;11.43;;;6.03;;
37527;SDS011;23372;52.050;4.810;2022-08-21T00:45:49;10.95;;;5.80;;
37527;SDS011;23372;52.050;4.810;2022-08-21T00:48:15;10.55;;;5.63;;
37527;SDS011;23372;52.050;4.810;2022-08-21T00:50:44;8.82;;;5.72;;
37527;SDS011;23372;52.050;4.810;2022-08-21T00:53:15;10.38;;;5.93;;
37527;SDS011;23372;52.050;4.810;2022-08-21T00:55:42;11.02;;;6.07;;
37527;SDS011;23372;52.050;4.810;2022-08-21T00:58:09;10.43;;;5.90;;
37527;SDS011;23372;52.050;4.810;2022-08-21T01:00:38;11.05;;;5.63;;
37527;SDS011;23372;52.050;4.810;2022-08-21T01:03:07;10.02;;;6.00;;
37527;SDS011;23372;52.050;4.810;2022-08-21T01:05:36;11.70;;;5.72;;
37527;SDS011;23372;52.050;4.810;2022-08-21T01:08:02;9.88;;;5.22;;
37527;SDS011;23372;52.050;4.810;2022-08-21T01:10:29;8.55;;;5.05;;
37527;SDS011;23372;52.050;4.810;2022-08-21T01:12:55;11.18;;;5.32;;
37527;SDS011;23372;52.050;4.810;2022-08-21T01:15:22;10.82;;;5.43;;
37527;SDS011;23372;52.050;4.810;2022-08-21T01:17:51;12.93;;;5.78;;
37527;SDS011;23372;52.050;4.810;2022-08-21T01:20:18;8.35;;;4.97;;
37527;SDS011;23372;52.050;4.810;2022-08-21T01:22:44;11.10;;;5.57;;
37527;SDS011;23372;52.050;4.810;2022-08-21T01:25:10;10.63;;;5.68;;
37527;SDS011;23372;52.050;4.810;2022-08-21T01:27:37;8.20;;;5.53;;
37527;SDS011;23372;52.050;4.810;2022-08-21T01:30:08;9.55;;;4.78;;
37527;SDS011;23372;52.050;4.810;2022-08-21T01:32:39;9.77;;;5.53;;
37527;SDS011;23372;52.050;4.810;2022-08-21T01:35:05;11.07;;;5.40;;
37527;SDS011;23372;52.050;4.810;2022-08-21T01:37:32;11.13;;;5.28;;
37527;SDS011;23372;52.050;4.810;2022-08-21T01:39:57;7.97;;;5.18;;
37527;SDS011;23372;52.050;4.810;2022-08-21T01:42:23;13.65;;;5.53;;
37527;SDS011;23372;52.050;4.810;2022-08-21T01:44:49;8.98;;;5.50;;
37527;SDS011;23372;52.050;4.810;2022-08-21T01:47:15;8.90;;;5.13;;
37527;SDS011;23372;52.050;4.810;2022-08-21T01:49:41;11.55;;;5.15;;
37527;SDS011;23372;52.050;4.810;2022-08-21T01:52:08;10.27;;;4.97;;
37527;SDS011;23372;52.050;4.810;2022-08-21T01:54:35;11.20;;;6.18;;
37527;SDS011;23372;52.050;4.810;2022-08-21T01:57:01;10.50;;;5.53;;
37527;SDS011;23372;52.050;4.810;2022-08-21T01:59:27;8.40;;;5.20;;
37527;SDS011;23372;52.050;4.810;2022-08-21T02:01:53;11.85;;;5.20;;
37527;SDS011;23372;52.050;4.810;2022-08-21T02:04:19;10.27;;;6.05;;
37527;SDS011;23372;52.050;4.810;2022-08-21T02:06:45;10.77;;;5.30;;
37527;SDS011;23372;52.050;4.810;2022-08-21T02:09:12;9.23;;;5.10;;
37527;SDS011;23372;52.050;4.810;2022-08-21T02:11:39;7.93;;;4.88;;
37527;SDS011;23372;52.050;4.810;2022-08-21T02:14:09;10.63;;;5.28;;
37527;SDS011;23372;52.050;4.810;2022-08-21T02:16:37;8.38;;;4.65;;
37527;SDS011;23372;52.050;4.810;2022-08-21T02:19:03;12.07;;;4.85;;
37527;SDS011;23372;52.050;4.810;2022-08-21T02:21:29;10.38;;;4.78;;
37527;SDS011;23372;52.050;4.810;2022-08-21T02:23:55;8.70;;;4.40;;
37527;SDS011;23372;52.050;4.810;2022-08-21T02:26:21;8.30;;;4.25;;
37527;SDS011;23372;52.050;4.810;2022-08-21T02:28:46;5.18;;;3.75;;
37527;SDS011;23372;52.050;4.810;2022-08-21T02:31:12;6.00;;;3.42;;
37527;SDS011;23372;52.050;4.810;2022-08-21T02:33:38;8.30;;;4.30;;
37527;SDS011;23372;52.050;4.810;2022-08-21T02:36:04;6.43;;;4.00;;
37527;SDS011;23372;52.050;4.810;2022-08-21T02:38:32;6.22;;;4.07;;
37527;SDS011;23372;52.050;4.810;2022-08-21T02:40:59;9.23;;;4.55;;
37527;SDS011;23372;52.050;4.810;2022-08-21T02:43:26;9.00;;;3.88;;
37527;SDS011;23372;52.050;4.810;2022-08-21T02:45:53;4.68;;;3.45;;
37527;SDS011;23372;52.050;4.810;2022-08-21T02:48:22;7.93;;;4.80;;
37527;SDS011;23372;52.050;4.810;2022-08-21T02:50:54;9.13;;;4.90;;
37527;SDS011;23372;52.050;4.810;2022-08-21T02:53:21;11.80;;;5.22;;
37527;SDS011;23372;52.050;4.810;2022-08-21T02:55:48;9.75;;;4.97;;
37527;SDS011;23372;52.050;4.810;2022-08-21T02:58:16;7.72;;;5.35;;
37527;SDS011;23372;52.050;4.810;2022-08-21T03:00:44;8.40;;;5.55;;
37527;SDS011;23372;52.050;4.810;2022-08-21T03:03:10;8.52;;;5.15;;
37527;SDS011;23372;52.050;4.810;2022-08-21T03:05:38;9.57;;;5.65;;
37527;SDS011;23372;52.050;4.810;2022-08-21T03:08:04;8.43;;;4.82;;
37527;SDS011;23372;52.050;4.810;2022-08-21T03:10:34;11.27;;;5.75;;
37527;SDS011;23372;52.050;4.810;2022-08-21T03:13:01;9.88;;;5.15;;
37527;SDS011;23372;52.050;4.810;2022-08-21T03:15:28;8.82;;;5.03;;
37527;SDS011;23372;52.050;4.810;2022-08-21T03:17:54;8.55;;;5.20;;
37527;SDS011;23372;52.050;4.810;2022-08-21T03:20:21;9.45;;;4.93;;
37527;SDS011;23372;52.050;4.810;2022-08-21T03:22:48;10.63;;;5.28;;
37527;SDS011;23372;52.050;4.810;2022-08-21T03:25:14;13.20;;;5.75;;
37527;SDS011;23372;52.050;4.810;2022-08-21T03:27:40;9.38;;;5.32;;
37527;SDS011;23372;52.050;4.810;2022-08-21T03:30:07;11.82;;;5.25;;
37527;SDS011;23372;52.050;4.810;2022-08-21T03:32:34;7.90;;;4.85;;
37527;SDS011;23372;52.050;4.810;2022-08-21T03:35:00;11.63;;;4.93;;
37527;SDS011;23372;52.050;4.810;2022-08-21T03:37:26;8.70;;;5.45;;
37527;SDS011;23372;52.050;4.810;2022-08-21T03:39:52;11.23;;;5.93;;
37527;SDS011;23372;52.050;4.810;2022-08-21T03:42:18;11.90;;;4.72;;
37527;SDS011;23372;52.050;4.810;2022-08-21T03:44:44;9.20;;;5.03;;
37527;SDS011;23372;52.050;4.810;2022-08-21T03:47:09;11.05;;;5.43;;
37527;SDS011;23372;52.050;4.810;2022-08-21T03:49:35;10.40;;;4.63;;
37527;SDS011;23372;52.050;4.810;2022-08-21T03:52:01;11.70;;;4.68;;
37527;SDS011;23372;52.050;4.810;2022-08-21T03:54:27;10.90;;;4.43;;
37527;SDS011;23372;52.050;4.810;2022-08-21T03:56:53;7.45;;;4.70;;
37527;SDS011;23372;52.050;4.810;2022-08-21T03:59:19;8.35;;;4.45;;
37527;SDS011;23372;52.050;4.810;2022-08-21T04:01:55;6.72;;;4.68;;
37527;SDS011;23372;52.050;4.810;2022-08-21T04:04:22;12.32;;;4.97;;
37527;SDS011;23372;52.050;4.810;2022-08-21T04:06:48;9.82;;;4.53;;
37527;SDS011;23372;52.050;4.810;2022-08-21T04:09:14;13.27;;;4.85;;
37527;SDS011;23372;52.050;4.810;2022-08-21T04:11:40;6.28;;;4.35;;
37527;SDS011;23372;52.050;4.810;2022-08-21T04:14:06;11.45;;;4.90;;
37527;SDS011;23372;52.050;4.810;2022-08-21T04:16:31;6.68;;;3.85;;
37527;SDS011;23372;52.050;4.810;2022-08-21T04:18:57;11.23;;;5.03;;
37527;SDS011;23372;52.050;4.810;2022-08-21T04:21:22;9.13;;;4.50;;
37527;SDS011;23372;52.050;4.810;2022-08-21T04:23:48;16.45;;;4.80;;
37527;SDS011;23372;52.050;4.810;2022-08-21T04:26:14;9.52;;;4.38;;
37527;SDS011;23372;52.050;4.810;2022-08-21T04:28:40;12.93;;;4.78;;
37527;SDS011;23372;52.050;4.810;2022-08-21T04:31:06;6.88;;;3.83;;
37527;SDS011;23372;52.050;4.810;2022-08-21T04:33:33;16.83;;;5.03;;
37527;SDS011;23372;52.050;4.810;2022-08-21T04:35:58;9.43;;;4.63;;
37527;SDS011;23372;52.050;4.810;2022-08-21T04:38:24;14.18;;;4.20;;
37527;SDS011;23372;52.050;4.810;2022-08-21T04:40:51;12.38;;;4.28;;
37527;SDS011;23372;52.050;4.810;2022-08-21T04:43:16;8.10;;;4.07;;
37527;SDS011;23372;52.050;4.810;2022-08-21T04:45:44;12.48;;;4.68;;
37527;SDS011;23372;52.050;4.810;2022-08-21T04:48:13;10.43;;;4.03;;
37527;SDS011;23372;52.050;4.810;2022-08-21T04:50:50;10.48;;;4.30;;
37527;SDS011;23372;52.050;4.810;2022-08-21T04:53:24;11.75;;;4.47;;
37527;SDS011;23372;52.050;4.810;2022-08-21T04:55:56;11.65;;;3.97;;
37527;SDS011;23372;52.050;4.810;2022-08-21T04:58:26;14.35;;;4.22;;
37527;SDS011;23372;52.050;4.810;2022-08-21T05:00:53;11.05;;;4.35;;
37527;SDS011;23372;52.050;4.810;2022-08-21T05:03:20;9.32;;;4.20;;
37527;SDS011;23372;52.050;4.810;2022-08-21T05:05:47;13.10;;;4.88;;
37527;SDS011;23372;52.050;4.810;2022-08-21T05:08:14;13.25;;;4.20;;
37527;SDS011;23372;52.050;4.810;2022-08-21T05:10:43;11.93;;;4.13;;
37527;SDS011;23372;52.050;4.810;2022-08-21T05:13:09;9.07;;;4.05;;
37527;SDS011;23372;52.050;4.810;2022-08-21T05:15:37;14.35;;;4.28;;
37527;SDS011;23372;52.050;4.810;2022-08-21T05:18:04;9.80;;;4.43;;
37527;SDS011;23372;52.050;4.810;2022-08-21T05:20:30;13.25;;;4.45;;
37527;SDS011;23372;52.050;4.810;2022-08-21T05:22:55;12.82;;;4.63;;
37527;SDS011;23372;52.050;4.810;2022-08-21T05:25:21;14.75;;;4.70;;
37527;SDS011;23372;52.050;4.810;2022-08-21T05:27:47;14.75;;;5.38;;
37527;SDS011;23372;52.050;4.810;2022-08-21T05:30:12;11.15;;;4.95;;
37527;SDS011;23372;52.050;4.810;2022-08-21T05:32:38;13.52;;;5.22;;
37527;SDS011;23372;52.050;4.810;2022-08-21T05:35:04;16.08;;;5.40;;
37527;SDS011;23372;52.050;4.810;2022-08-21T05:37:31;14.23;;;6.20;;
37527;SDS011;23372;52.050;4.810;2022-08-21T05:39:58;11.85;;;5.35;;
37527;SDS011;23372;52.050;4.810;2022-08-21T05:42:24;12.88;;;5.43;;
37527;SDS011;23372;52.050;4.810;2022-08-21T05:44:49;16.25;;;6.30;;
37527;SDS011;23372;52.050;4.810;2022-08-21T05:47:15;15.85;;;6.15;;
37527;SDS011;23372;52.050;4.810;2022-08-21T05:49:40;14.95;;;6.20;;
37527;SDS011;23372;52.050;4.810;2022-08-21T05:52:06;11.48;;;5.70;;
37527;SDS011;23372;52.050;4.810;2022-08-21T05:54:31;13.40;;;5.80;;
37527;SDS011;23372;52.050;4.810;2022-08-21T05:56:57;18.63;;;6.25;;
37527;SDS011;23372;52.050;4.810;2022-08-21T05:59:23;14.95;;;6.10;;
37527;SDS011;23372;52.050;4.810;2022-08-21T06:01:48;14.07;;;7.07;;
37527;SDS011;23372;52.050;4.810;2022-08-21T06:04:16;16.33;;;6.03;;
37527;SDS011;23372;52.050;4.810;2022-08-21T06:06:41;15.73;;;7.05;;
37527;SDS011;23372;52.050;4.810;2022-08-21T06:09:07;15.13;;;6.00;;
37527;SDS011;23372;52.050;4.810;2022-08-21T06:11:32;16.00;;;6.72;;
37527;SDS011;23372;52.050;4.810;2022-08-21T06:13:58;15.48;;;8.27;;
37527;SDS011;23372;52.050;4.810;2022-08-21T06:16:25;17.92;;;6.55;;
37527;SDS011;23372;52.050;4.810;2022-08-21T06:18:52;22.48;;;7.22;;
37527;SDS011;23372;52.050;4.810;2022-08-21T06:21:18;18.92;;;6.53;;
37527;SDS011;23372;52.050;4.810;2022-08-21T06:23:44;19.73;;;6.82;;
37527;SDS011;23372;52.050;4.810;2022-08-21T06:26:11;20.17;;;7.07;;
37527;SDS011;23372;52.050;4.810;2022-08-21T06:28:38;13.85;;;6.03;;
37527;SDS011;23372;52.050;4.810;2022-08-21T06:31:11;15.63;;;6.20;;
37527;SDS011;23372;52.050;4.810;2022-08-21T06:33:41;18.77;;;6.38;;
37527;SDS011;23372;52.050;4.810;2022-08-21T06:36:07;25.13;;;7.60;;
37527;SDS011;23372;52.050;4.810;2022-08-21T06:38:32;15.15;;;6.75;;
37527;SDS011;23372;52.050;4.810;2022-08-21T06:40:58;18.38;;;6.63;;
37527;SDS011;23372;52.050;4.810;2022-08-21T06:43:23;15.13;;;6.25;;
37527;SDS011;23372;52.050;4.810;2022-08-21T06:45:49;14.73;;;6.07;;
37527;SDS011;23372;52.050;4.810;2022-08-21T06:48:15;18.25;;;6.25;;
37527;SDS011;23372;52.050;4.810;2022-08-21T06:50:40;16.70;;;5.78;;
37527;SDS011;23372;52.050;4.810;2022-08-21T06:53:07;19.48;;;6.25;;
37527;SDS011;23372;52.050;4.810;2022-08-21T06:55:35;18.83;;;6.80;;
37527;SDS011;23372;52.050;4.810;2022-08-21T06:58:01;20.77;;;6.65;;
37527;SDS011;23372;52.050;4.810;2022-08-21T07:00:27;13.15;;;6.28;;
37527;SDS011;23372;52.050;4.810;2022-08-21T07:02:53;16.05;;;6.88;;
37527;SDS011;23372;52.050;4.810;2022-08-21T07:05:18;16.40;;;7.13;;
37527;SDS011;23372;52.050;4.810;2022-08-21T07:07:44;24.58;;;6.25;;
37527;SDS011;23372;52.050;4.810;2022-08-21T07:10:11;15.50;;;6.28;;
37527;SDS011;23372;52.050;4.810;2022-08-21T07:12:37;15.88;;;6.22;;
37527;SDS011;23372;52.050;4.810;2022-08-21T07:15:03;19.08;;;6.93;;
37527;SDS011;23372;52.050;4.810;2022-08-21T07:17:29;20.00;;;7.55;;
37527;SDS011;23372;52.050;4.810;2022-08-21T07:19:54;16.75;;;5.43;;
37527;SDS011;23372;52.050;4.810;2022-08-21T07:22:21;16.25;;;5.95;;
37527;SDS011;23372;52.050;4.810;2022-08-21T07:24:47;16.92;;;6.50;;
37527;SDS011;23372;52.050;4.810;2022-08-21T07:27:12;20.58;;;6.32;;
37527;SDS011;23372;52.050;4.810;2022-08-21T07:29:38;24.55;;;6.90;;
37527;SDS011;23372;52.050;4.810;2022-08-21T07:32:04;19.45;;;5.68;;
37527;SDS011;23372;52.050;4.810;2022-08-21T07:34:30;12.95;;;5.93;;
37527;SDS011;23372;52.050;4.810;2022-08-21T07:36:56;14.80;;;5.50;;
37527;SDS011;23372;52.050;4.810;2022-08-21T07:39:23;19.60;;;5.10;;
37527;SDS011;23372;52.050;4.810;2022-08-21T07:41:49;15.20;;;6.03;;
37527;SDS011;23372;52.050;4.810;2022-08-21T07:44:14;11.93;;;5.45;;
37527;SDS011;23372;52.050;4.810;2022-08-21T07:46:40;13.85;;;5.82;;
37527;SDS011;23372;52.050;4.810;2022-08-21T07:49:05;19.77;;;5.65;;
37527;SDS011;23372;52.050;4.810;2022-08-21T07:51:31;14.40;;;5.22;;
37527;SDS011;23372;52.050;4.810;2022-08-21T07:53:58;13.88;;;4.55;;
37527;SDS011;23372;52.050;4.810;2022-08-21T07:56:24;12.63;;;4.97;;
37527;SDS011;23372;52.050;4.810;2022-08-21T07:58:50;18.13;;;5.93;;
37527;SDS011;23372;52.050;4.810;2022-08-21T08:01:16;14.68;;;6.00;;
37527;SDS011;23372;52.050;4.810;2022-08-21T08:03:43;20.08;;;5.68;;
37527;SDS011;23372;52.050;4.810;2022-08-21T08:06:09;17.08;;;5.47;;
37527;SDS011;23372;52.050;4.810;2022-08-21T08:08:37;13.27;;;5.28;;
37527;SDS011;23372;52.050;4.810;2022-08-21T08:11:04;14.68;;;5.68;;
37527;SDS011;23372;52.050;4.810;2022-08-21T08:13:30;15.15;;;5.03;;
37527;SDS011;23372;52.050;4.810;2022-08-21T08:15:55;12.50;;;5.20;;
37527;SDS011;23372;52.050;4.810;2022-08-21T08:18:21;12.63;;;4.78;;
37527;SDS011;23372;52.050;4.810;2022-08-21T08:20:47;14.57;;;4.00;;
37527;SDS011;23372;52.050;4.810;2022-08-21T08:23:13;14.13;;;3.95;;
37527;SDS011;23372;52.050;4.810;2022-08-21T08:25:39;19.52;;;5.18;;
37527;SDS011;23372;52.050;4.810;2022-08-21T08:28:05;17.98;;;4.60;;
37527;SDS011;23372;52.050;4.810;2022-08-21T08:30:31;17.85;;;4.57;;
37527;SDS011;23372;52.050;4.810;2022-08-21T08:32:57;12.63;;;3.65;;
37527;SDS011;23372;52.050;4.810;2022-08-21T08:35:24;12.20;;;3.80;;
37527;SDS011;23372;52.050;4.810;2022-08-21T08:37:50;12.07;;;4.90;;
37527;SDS011;23372;52.050;4.810;2022-08-21T08:43:04;13.60;;;3.60;;
37527;SDS011;23372;52.050;4.810;2022-08-21T08:45:32;14.23;;;4.47;;
37527;SDS011;23372;52.050;4.810;2022-08-21T08:48:03;11.80;;;3.22;;
37527;SDS011;23372;52.050;4.810;2022-08-21T08:50:41;11.10;;;3.30;;
37527;SDS011;23372;52.050;4.810;2022-08-21T08:53:17;13.23;;;3.33;;
37527;SDS011;23372;52.050;4.810;2022-08-21T08:55:47;15.55;;;3.63;;
37527;SDS011;23372;52.050;4.810;2022-08-21T08:58:16;9.05;;;3.08;;
37527;SDS011;23372;52.050;4.810;2022-08-21T09:00:50;11.95;;;2.80;;
37527;SDS011;23372;52.050;4.810;2022-08-21T09:03:17;15.50;;;2.80;;
37527;SDS011;23372;52.050;4.810;2022-08-21T09:05:55;10.60;;;2.95;;
37527;SDS011;23372;52.050;4.810;2022-08-21T09:08:54;12.85;;;3.30;;
37527;SDS011;23372;52.050;4.810;2022-08-21T09:11:49;15.20;;;3.67;;
37527;SDS011;23372;52.050;4.810;2022-08-21T09:14:29;10.57;;;3.05;;
37527;SDS011;23372;52.050;4.810;2022-08-21T09:17:04;11.23;;;2.78;;
37527;SDS011;23372;52.050;4.810;2022-08-21T09:19:55;12.30;;;2.72;;
37527;SDS011;23372;52.050;4.810;2022-08-21T09:22:42;15.38;;;3.05;;
37527;SDS011;23372;52.050;4.810;2022-08-21T09:25:28;11.57;;;3.00;;
37527;SDS011;23372;52.050;4.810;2022-08-21T09:27:57;8.73;;;2.33;;
37527;SDS011;23372;52.050;4.810;2022-08-21T09:30:29;10.68;;;2.20;;
37527;SDS011;23372;52.050;4.810;2022-08-21T09:32:57;12.73;;;2.30;;
37527;SDS011;23372;52.050;4.810;2022-08-21T09:35:23;9.15;;;2.47;;
37527;SDS011;23372;52.050;4.810;2022-08-21T09:37:54;8.65;;;2.42;;
37527;SDS011;23372;52.050;4.810;2022-08-21T09:43:04;10.75;;;2.53;;
37527;SDS011;23372;52.050;4.810;2022-08-21T09:45:41;10.98;;;3.63;;
37527;SDS011;23372;52.050;4.810;2022-08-21T09:48:08;10.63;;;2.90;;
37527;SDS011;23372;52.050;4.810;2022-08-21T09:50:40;8.93;;;2.50;;
37527;SDS011;23372;52.050;4.810;2022-08-21T09:53:14;9.27;;;2.28;;
37527;SDS011;23372;52.050;4.810;2022-08-21T09:55:56;8.68;;;2.58;;
37527;SDS011;23372;52.050;4.810;2022-08-21T09:58:43;16.38;;;2.90;;
37527;SDS011;23372;52.050;4.810;2022-08-21T10:01:14;11.43;;;2.80;;
37527;SDS011;23372;52.050;4.810;2022-08-21T10:03:41;9.88;;;2.42;;
37527;SDS011;23372;52.050;4.810;2022-08-21T10:06:08;11.73;;;2.40;;
37527;SDS011;23372;52.050;4.810;2022-08-21T10:08:39;13.80;;;2.70;;
37527;SDS011;23372;52.050;4.810;2022-08-21T10:11:09;14.43;;;3.60;;
37527;SDS011;23372;52.050;4.810;2022-08-21T10:21:59;10.52;;;2.67;;
37527;SDS011;23372;52.050;4.810;2022-08-21T10:24:29;7.82;;;2.10;;
37527;SDS011;23372;52.050;4.810;2022-08-21T10:30:00;16.67;;;2.53;;
37527;SDS011;23372;52.050;4.810;2022-08-21T10:32:40;9.98;;;2.88;;
37527;SDS011;23372;52.050;4.810;2022-08-21T10:35:28;6.93;;;1.90;;
37527;SDS011;23372;52.050;4.810;2022-08-21T10:41:10;9.73;;;2.25;;
37527;SDS011;23372;52.050;4.810;2022-08-21T10:44:10;11.70;;;2.50;;
37527;SDS011;23372;52.050;4.810;2022-08-21T10:46:50;7.53;;;2.20;;
37527;SDS011;23372;52.050;4.810;2022-08-21T10:49:58;7.60;;;1.77;;
37527;SDS011;23372;52.050;4.810;2022-08-21T10:55:14;4.85;;;1.63;;
37527;SDS011;23372;52.050;4.810;2022-08-21T10:57:44;6.10;;;1.85;;
37527;SDS011;23372;52.050;4.810;2022-08-21T11:00:23;12.98;;;2.30;;
37527;SDS011;23372;52.050;4.810;2022-08-21T11:05:46;10.65;;;2.72;;
37527;SDS011;23372;52.050;4.810;2022-08-21T11:08:24;11.65;;;2.58;;
37527;SDS011;23372;52.050;4.810;2022-08-21T11:11:04;8.98;;;2.40;;
37527;SDS011;23372;52.050;4.810;2022-08-21T11:13:51;6.60;;;2.00;;
37527;SDS011;23372;52.050;4.810;2022-08-21T11:19:28;7.80;;;2.20;;
37527;SDS011;23372;52.050;4.810;2022-08-21T11:22:15;9.73;;;1.75;;
37527;SDS011;23372;52.050;4.810;2022-08-21T11:24:52;5.97;;;1.70;;
37527;SDS011;23372;52.050;4.810;2022-08-21T11:30:11;7.28;;;1.55;;
37527;SDS011;23372;52.050;4.810;2022-08-21T11:32:42;8.23;;;1.98;;
37527;SDS011;23372;52.050;4.810;2022-08-21T11:37:58;7.82;;;1.70;;
37527;SDS011;23372;52.050;4.810;2022-08-21T11:51:20;7.40;;;2.05;;
37527;SDS011;23372;52.050;4.810;2022-08-21T11:53:51;13.20;;;2.13;;
37527;SDS011;23372;52.050;4.810;2022-08-21T11:56:48;5.72;;;1.77;;
37527;SDS011;23372;52.050;4.810;2022-08-21T11:59:38;7.00;;;1.77;;
37527;SDS011;23372;52.050;4.810;2022-08-21T12:02:18;11.95;;;2.13;;
37527;SDS011;23372;52.050;4.810;2022-08-21T12:04:49;4.82;;;1.50;;
37527;SDS011;23372;52.050;4.810;2022-08-21T12:07:40;5.50;;;2.17;;
37527;SDS011;23372;52.050;4.810;2022-08-21T12:10:10;7.80;;;1.55;;
37527;SDS011;23372;52.050;4.810;2022-08-21T12:12:43;6.95;;;1.60;;
37527;SDS011;23372;52.050;4.810;2022-08-21T12:17:52;6.22;;;1.80;;
37527;SDS011;23372;52.050;4.810;2022-08-21T12:25:38;7.78;;;1.65;;
37527;SDS011;23372;52.050;4.810;2022-08-21T12:28:11;7.70;;;1.90;;
37527;SDS011;23372;52.050;4.810;2022-08-21T12:30:41;6.35;;;1.60;;
37527;SDS011;23372;52.050;4.810;2022-08-21T12:33:23;6.18;;;1.70;;
37527;SDS011;23372;52.050;4.810;2022-08-21T12:35:53;5.95;;;1.45;;
37527;SDS011;23372;52.050;4.810;2022-08-21T12:38:57;6.60;;;1.80;;
37527;SDS011;23372;52.050;4.810;2022-08-21T12:41:40;5.95;;;1.58;;
37527;SDS011;23372;52.050;4.810;2022-08-21T12:44:38;7.47;;;1.88;;
37527;SDS011;23372;52.050;4.810;2022-08-21T12:47:16;7.15;;;1.33;;
37527;SDS011;23372;52.050;4.810;2022-08-21T12:49:51;9.73;;;2.00;;
37527;SDS011;23372;52.050;4.810;2022-08-21T12:52:22;5.22;;;1.70;;
37527;SDS011;23372;52.050;4.810;2022-08-21T12:54:52;7.90;;;1.42;;
37527;SDS011;23372;52.050;4.810;2022-08-21T12:57:20;4.13;;;1.38;;
37527;SDS011;23372;52.050;4.810;2022-08-21T12:59:58;10.13;;;1.98;;
37527;SDS011;23372;52.050;4.810;2022-08-21T13:02:36;9.07;;;2.00;;
37527;SDS011;23372;52.050;4.810;2022-08-21T13:05:08;7.40;;;1.67;;
37527;SDS011;23372;52.050;4.810;2022-08-21T13:07:38;7.65;;;1.95;;
37527;SDS011;23372;52.050;4.810;2022-08-21T13:10:23;5.68;;;1.73;;
37527;SDS011;23372;52.050;4.810;2022-08-21T13:12:53;5.30;;;1.85;;
37527;SDS011;23372;52.050;4.810;2022-08-21T13:15:23;4.57;;;1.40;;
37527;SDS011;23372;52.050;4.810;2022-08-21T13:17:53;5.55;;;1.35;;
37527;SDS011;23372;52.050;4.810;2022-08-21T13:20:22;5.00;;;1.30;;
37527;SDS011;23372;52.050;4.810;2022-08-21T13:22:50;6.57;;;1.17;;
37527;SDS011;23372;52.050;4.810;2022-08-21T13:25:18;6.00;;;1.83;;
37527;SDS011;23372;52.050;4.810;2022-08-21T13:27:56;3.78;;;1.63;;
37527;SDS011;23372;52.050;4.810;2022-08-21T13:30:24;7.95;;;1.77;;
37527;SDS011;23372;52.050;4.810;2022-08-21T13:32:50;3.47;;;1.33;;
37527;SDS011;23372;52.050;4.810;2022-08-21T13:35:21;6.85;;;1.58;;
37527;SDS011;23372;52.050;4.810;2022-08-21T13:38:05;6.57;;;1.48;;
37527;SDS011;23372;52.050;4.810;2022-08-21T13:40:39;3.85;;;1.42;;
37527;SDS011;23372;52.050;4.810;2022-08-21T13:43:19;4.07;;;1.23;;
37527;SDS011;23372;52.050;4.810;2022-08-21T13:45:52;4.32;;;1.90;;
37527;SDS011;23372;52.050;4.810;2022-08-21T13:48:19;7.97;;;1.40;;
37527;SDS011;23372;52.050;4.810;2022-08-21T13:50:46;7.95;;;1.45;;
37527;SDS011;23372;52.050;4.810;2022-08-21T13:53:26;7.10;;;1.48;;
37527;SDS011;23372;52.050;4.810;2022-08-21T13:55:57;6.28;;;1.42;;
37527;SDS011;23372;52.050;4.810;2022-08-21T13:58:25;8.52;;;1.50;;
37527;SDS011;23372;52.050;4.810;2022-08-21T14:00:55;4.07;;;1.40;;
37527;SDS011;23372;52.050;4.810;2022-08-21T14:03:31;7.28;;;1.83;;
37527;SDS011;23372;52.050;4.810;2022-08-21T14:05:59;5.75;;;1.30;;
37527;SDS011;23372;52.050;4.810;2022-08-21T14:08:27;5.28;;;1.27;;
37527;SDS011;23372;52.050;4.810;2022-08-21T14:10:59;9.48;;;1.50;;
37527;SDS011;23372;52.050;4.810;2022-08-21T14:15:57;3.78;;;1.60;;
37527;SDS011;23372;52.050;4.810;2022-08-21T14:18:24;4.40;;;1.77;;
37527;SDS011;23372;52.050;4.810;2022-08-21T14:20:51;5.72;;;1.50;;
37527;SDS011;23372;52.050;4.810;2022-08-21T14:23:24;6.45;;;2.05;;
37527;SDS011;23372;52.050;4.810;2022-08-21T14:25:50;10.70;;;1.95;;
37527;SDS011;23372;52.050;4.810;2022-08-21T14:30:51;4.63;;;1.67;;
37527;SDS011;23372;52.050;4.810;2022-08-21T14:33:19;8.13;;;1.95;;
37527;SDS011;23372;52.050;4.810;2022-08-21T14:35:54;4.85;;;1.27;;
37527;SDS011;23372;52.050;4.810;2022-08-21T14:38:21;7.38;;;1.48;;
37527;SDS011;23372;52.050;4.810;2022-08-21T14:40:50;8.13;;;1.40;;
37527;SDS011;23372;52.050;4.810;2022-08-21T14:43:20;6.78;;;1.52;;
37527;SDS011;23372;52.050;4.810;2022-08-21T14:45:46;7.95;;;1.50;;
37527;SDS011;23372;52.050;4.810;2022-08-21T14:48:12;6.43;;;1.33;;
37527;SDS011;23372;52.050;4.810;2022-08-21T14:50:38;5.38;;;1.50;;
37527;SDS011;23372;52.050;4.810;2022-08-21T14:53:03;6.57;;;1.55;;
37527;SDS011;23372;52.050;4.810;2022-08-21T14:55:29;9.48;;;1.88;;
37527;SDS011;23372;52.050;4.810;2022-08-21T14:58:15;3.78;;;1.30;;
37527;SDS011;23372;52.050;4.810;2022-08-21T15:00:41;6.07;;;1.40;;
37527;SDS011;23372;52.050;4.810;2022-08-21T15:03:06;5.45;;;2.03;;
37527;SDS011;23372;52.050;4.810;2022-08-21T15:05:32;4.25;;;1.20;;
37527;SDS011;23372;52.050;4.810;2022-08-21T15:07:57;7.38;;;1.38;;
37527;SDS011;23372;52.050;4.810;2022-08-21T15:10:23;5.38;;;1.58;;
37527;SDS011;23372;52.050;4.810;2022-08-21T15:12:48;6.70;;;1.30;;
37527;SDS011;23372;52.050;4.810;2022-08-21T15:15:14;5.85;;;1.67;;
37527;SDS011;23372;52.050;4.810;2022-08-21T15:17:40;8.73;;;1.75;;
37527;SDS011;23372;52.050;4.810;2022-08-21T15:20:05;6.18;;;1.48;;
37527;SDS011;23372;52.050;4.810;2022-08-21T15:22:32;10.55;;;1.70;;
37527;SDS011;23372;52.050;4.810;2022-08-21T15:24:58;8.75;;;1.80;;
37527;SDS011;23372;52.050;4.810;2022-08-21T15:27:23;7.55;;;1.65;;
37527;SDS011;23372;52.050;4.810;2022-08-21T15:29:49;6.05;;;1.90;;
37527;SDS011;23372;52.050;4.810;2022-08-21T15:32:19;6.93;;;1.60;;
37527;SDS011;23372;52.050;4.810;2022-08-21T15:34:47;8.10;;;1.60;;
37527;SDS011;23372;52.050;4.810;2022-08-21T15:37:14;8.18;;;2.15;;
37527;SDS011;23372;52.050;4.810;2022-08-21T15:39:40;7.80;;;1.67;;
37527;SDS011;23372;52.050;4.810;2022-08-21T15:42:05;10.30;;;2.45;;
37527;SDS011;23372;52.050;4.810;2022-08-21T15:44:31;8.85;;;1.85;;
37527;SDS011;23372;52.050;4.810;2022-08-21T15:46:57;8.52;;;1.80;;
37527;SDS011;23372;52.050;4.810;2022-08-21T15:49:24;7.28;;;2.35;;
37527;SDS011;23372;52.050;4.810;2022-08-21T15:51:49;7.40;;;2.03;;